메인 페이지
METAR-TAF:

METAR-TAF

공항 :

피츠버그, 펜실베이니아, 미국

피츠버그 국제공항

위도: 40-30-14N, 경도: 080-15-59W, 고도: 366m

현재 날씨관측

예보는 16분 전, 20:51시(UTC)에 발표되었습니다.
서북서20kt, 순간 최대 풍속 27kt
온도 6°C
습도 52%
기압 1019 hPa
시정: 16.1km
고도 3800ft 상공 구름 많음
고도 4900ft 상공 구름 많음

METAR: KPIT 192051Z 30020G27KT 10SM BKN038 BKN049 06/M03 A3009 RMK AO2 PK WND 31027/2050 SLP206 60000 T00561028 51015

시각: 17:07 (21:07 UTC)

예보

예보는 56분 전, 20:11시(UTC)에 발표되었습니다.
예보 대상 시간: 19일 20시부터 20일 24시까지 (UTC)
북서15kt, 순간 최대 풍속 28kt
시정: 10km
고도 3500ft 상공 구름 많음
20일 0200시부터 (UTC)
북서12kt
시정: 10km
고도 3500ft 상공 구름 조금
20일 1400시부터 (UTC)
북서13kt
시정: 10km
고도 4000ft 상공 구름 조금

TAF: KPIT 192011Z 1920/2024 31015G28KT P6SM BKN035 FM200200 32012KT P6SM FEW035 FM201400 31013KT P6SM FEW040

4,000개 이상의 공항 관측 자료 및 예보 (METAR 및 TAF 보고).

지도상에서 검색 가능한 기상관측소가 노란 점과 빨간 점으로 표시되어 있습니다.

기상관측소 명을 보려면 표시 위로 마우스를 이동하세요.

날씨 관측과 예보를 보려면 클릭하세요.

지도 변경 : 확대하려면 엑스 표시가 있는 녹색 버튼, 축소하려면 빼기 표시가 있는 녹색 버튼, 다음 페이지의 지도를 보려면 녹색 화살표를 클릭하세요.


METAR-TAF: